createdAt,value
2018-02-07T00:01:36.758Z,0.30
2018-02-07T00:04:11.910Z,0.30
2018-02-07T00:06:48.850Z,0.30
2018-02-07T00:09:24.134Z,0.30
2018-02-07T00:11:59.869Z,0.30
2018-02-07T00:14:34.906Z,0.20
2018-02-07T00:17:09.960Z,0.30
2018-02-07T00:19:44.977Z,0.30
2018-02-07T00:22:20.066Z,0.30
2018-02-07T00:24:54.936Z,0.30
2018-02-07T00:27:29.968Z,0.10
2018-02-07T00:30:08.526Z,0.30
2018-02-07T00:32:43.564Z,0.30
2018-02-07T00:35:18.451Z,0.20
2018-02-07T00:37:53.334Z,0.30
2018-02-07T00:40:28.334Z,0.30
2018-02-07T00:43:03.280Z,0.20
2018-02-07T00:45:38.144Z,0.20
2018-02-07T00:48:13.181Z,0.10
2018-02-07T00:50:48.180Z,0.10
2018-02-07T00:53:34.248Z,0.10
2018-02-07T00:56:09.198Z,0.20
2018-02-07T00:58:44.185Z,0.20
2018-02-07T01:01:19.167Z,0.20
2018-02-07T01:03:54.105Z,0.20
2018-02-07T01:06:29.084Z,0.00
2018-02-07T01:09:04.132Z,0.20
2018-02-07T01:11:39.740Z,0.20
2018-02-07T01:14:14.836Z,0.10
2018-02-07T01:16:49.726Z,0.10
2018-02-07T01:19:25.483Z,0.10
2018-02-07T01:22:00.459Z,0.20
2018-02-07T01:24:35.376Z,0.10
2018-02-07T01:27:10.219Z,0.10
2018-02-07T01:29:45.325Z,0.10
2018-02-07T01:32:20.172Z,0.10
2018-02-07T01:34:55.210Z,-1.80
2018-02-07T01:37:30.209Z,0.10
2018-02-07T01:40:05.269Z,0.00
2018-02-07T01:42:40.256Z,0.10
2018-02-07T01:45:15.299Z,-0.40
2018-02-07T01:47:50.339Z,-0.20
2018-02-07T01:50:25.470Z,-0.10
2018-02-07T01:53:00.485Z,-0.10
2018-02-07T01:55:36.184Z,-0.20
2018-02-07T01:58:12.024Z,-0.20
2018-02-07T02:00:47.759Z,-0.20
2018-02-07T02:03:22.757Z,-0.20
2018-02-07T02:05:57.777Z,-0.20
2018-02-07T02:08:32.653Z,-0.20
2018-02-07T02:11:01.764Z,-0.30
2018-02-07T02:13:30.852Z,-0.40
2018-02-07T02:15:59.985Z,-0.30
2018-02-07T02:18:29.040Z,-0.40
2018-02-07T02:20:58.153Z,-0.40
2018-02-07T02:23:27.249Z,-0.40
2018-02-07T02:25:56.352Z,-0.40
2018-02-07T02:28:25.401Z,-0.30
2018-02-07T02:30:55.232Z,-0.40
2018-02-07T02:33:24.302Z,-0.40
2018-02-07T02:36:11.774Z,-0.40
2018-02-07T02:38:42.717Z,-0.40
2018-02-07T02:41:12.793Z,-0.50
2018-02-07T02:43:41.940Z,-0.50
2018-02-07T02:46:11.081Z,-0.50
2018-02-07T02:48:40.231Z,-0.50
2018-02-07T02:51:09.404Z,-0.40
2018-02-07T02:53:55.478Z,-0.50
2018-02-07T02:56:25.165Z,-0.50
2018-02-07T02:58:54.304Z,-0.50
2018-02-07T03:01:26.431Z,-0.60
2018-02-07T03:03:55.552Z,-0.60
2018-02-07T03:06:24.650Z,-0.60
2018-02-07T03:09:13.556Z,-0.60
2018-02-07T03:11:54.009Z,-0.60
2018-02-07T07:37:49.326Z,0.60
2018-02-07T07:40:18.365Z,0.50
2018-02-07T07:42:47.576Z,0.70
2018-02-07T07:45:17.387Z,0.50
2018-02-07T07:47:47.239Z,0.80
2018-02-07T07:50:16.290Z,1.10
2018-02-07T07:52:46.080Z,1.20
2018-02-07T07:55:15.158Z,1.40
2018-02-07T07:57:44.228Z,1.60
2018-02-07T08:00:13.254Z,1.60
2018-02-07T08:02:42.306Z,1.80
2018-02-07T08:05:11.317Z,1.90
2018-02-07T08:07:40.361Z,2.10
2018-02-07T08:10:10.151Z,2.30
2018-02-07T08:12:39.207Z,2.40
2018-02-07T08:15:08.272Z,2.70
2018-02-07T08:17:38.065Z,2.80
2018-02-07T08:20:07.114Z,3.00
2018-02-07T08:22:36.142Z,3.00
2018-02-07T08:25:05.191Z,3.30
2018-02-07T08:27:34.230Z,3.40
2018-02-07T08:30:03.283Z,3.20
2018-02-07T08:32:32.307Z,3.50
2018-02-07T08:35:01.374Z,3.40
2018-02-07T08:37:30.398Z,3.40
2018-02-07T08:39:59.451Z,3.70
2018-02-07T08:42:28.479Z,3.80
2018-02-07T08:44:57.566Z,3.80
2018-02-07T08:47:26.595Z,3.90
2018-02-07T08:49:55.615Z,3.90
2018-02-07T08:52:24.680Z,4.00
2018-02-07T08:54:53.733Z,4.10
2018-02-07T08:57:22.766Z,4.10
2018-02-07T08:59:51.809Z,4.10
2018-02-07T09:02:25.481Z,4.10
2018-02-07T09:04:54.576Z,4.30
2018-02-07T09:07:24.367Z,4.30
2018-02-07T09:09:53.540Z,4.40
2018-02-07T09:12:22.611Z,4.40
2018-02-07T09:14:51.644Z,4.50
2018-02-07T09:17:20.739Z,4.70
2018-02-07T09:19:49.767Z,4.70
2018-02-07T09:22:19.552Z,4.90
2018-02-07T09:24:48.612Z,5.00
2018-02-07T09:27:18.583Z,5.20
2018-02-07T09:29:48.437Z,5.40
2018-02-07T09:32:17.462Z,5.50
2018-02-07T09:34:46.523Z,5.60
2018-02-07T09:37:15.542Z,5.50
2018-02-07T09:39:44.593Z,5.60
2018-02-07T09:42:13.614Z,5.80
2018-02-07T09:44:43.656Z,6.20
2018-02-07T09:47:12.753Z,6.60
2018-02-07T09:49:41.782Z,6.90
2018-02-07T09:52:10.880Z,7.30
2018-02-07T09:54:39.927Z,7.40
2018-02-07T09:57:08.947Z,7.80
2018-02-07T09:59:38.761Z,7.50
2018-02-07T10:02:08.541Z,7.10
2018-02-07T10:04:37.630Z,6.80
2018-02-07T10:07:07.615Z,6.40
2018-02-07T10:09:36.651Z,6.10
2018-02-07T10:12:05.710Z,5.90
2018-02-07T10:14:34.727Z,5.90
2018-02-07T10:17:03.814Z,5.80
2018-02-07T10:19:32.864Z,5.90
2018-02-07T10:22:01.926Z,5.90
2018-02-07T10:24:30.939Z,5.70
2018-02-07T10:27:00.754Z,6.00
2018-02-07T10:29:30.541Z,6.10
2018-02-07T10:31:59.586Z,6.10
2018-02-07T10:34:28.607Z,6.20
2018-02-07T10:36:57.667Z,6.30
2018-02-07T10:39:26.703Z,6.60
2018-02-07T10:41:55.789Z,7.20
2018-02-07T10:44:24.818Z,8.10
2018-02-07T10:46:54.610Z,9.20
2018-02-07T10:49:23.702Z,10.40
2018-02-07T10:51:52.739Z,11.00
2018-02-07T10:54:21.770Z,10.50
2018-02-07T10:56:50.826Z,10.80
2018-02-07T10:59:19.890Z,11.30
2018-02-07T11:01:49.690Z,12.10
2018-02-07T11:04:18.754Z,12.50
2018-02-07T11:06:47.782Z,12.60
2018-02-07T11:09:16.924Z,12.50
2018-02-07T11:11:45.966Z,11.80
2018-02-07T11:14:15.002Z,11.10
2018-02-07T11:16:44.181Z,10.60
2018-02-07T11:19:13.980Z,9.90
2018-02-07T11:21:43.016Z,9.60
2018-02-07T11:24:12.100Z,9.20
2018-02-07T11:26:41.132Z,8.50
2018-02-07T11:29:10.166Z,8.30
2018-02-07T11:31:39.995Z,8.10
2018-02-07T11:34:09.819Z,8.20
2018-02-07T11:36:38.842Z,8.30
2018-02-07T11:39:07.905Z,8.60
2018-02-07T11:41:36.926Z,8.90
2018-02-07T11:44:05.997Z,9.50
2018-02-07T11:46:35.044Z,10.10
2018-02-07T11:49:04.084Z,10.20
2018-02-07T11:51:33.160Z,10.00
2018-02-07T11:54:02.988Z,9.80
2018-02-07T11:56:32.023Z,9.70
2018-02-07T11:59:01.100Z,9.40
2018-02-07T12:01:30.140Z,9.10
2018-02-07T12:03:59.203Z,8.90
2018-02-07T12:06:28.223Z,8.90
2018-02-07T12:08:58.135Z,8.80
2018-02-07T12:11:27.199Z,8.70
2018-02-07T12:13:56.231Z,8.70
2018-02-07T12:16:25.290Z,9.00
2018-02-07T12:18:54.326Z,9.40
2018-02-07T12:21:24.155Z,9.50
2018-02-07T12:23:53.191Z,9.50
2018-02-07T12:26:22.254Z,9.60
2018-02-07T12:28:51.302Z,9.80
2018-02-07T12:31:20.362Z,9.80
2018-02-07T12:33:53.641Z,9.80
2018-02-07T12:36:22.698Z,9.90
2018-02-07T12:38:52.798Z,9.30
2018-02-07T12:41:28.670Z,9.60
2018-02-07T12:44:03.489Z,8.60
2018-02-07T12:46:38.532Z,11.10
2018-02-07T12:49:13.502Z,11.10
2018-02-07T12:51:48.459Z,11.40
2018-02-07T12:54:23.476Z,11.80
2018-02-07T12:56:58.687Z,11.80
2018-02-07T12:59:33.914Z,11.90
2018-02-07T13:02:09.016Z,10.60
2018-02-07T13:04:44.195Z,11.90
2018-02-07T13:07:19.534Z,12.00
2018-02-07T13:09:55.368Z,12.30
2018-02-07T13:12:31.186Z,12.30
2018-02-07T13:15:07.810Z,12.50
2018-02-07T13:17:42.851Z,12.40
2018-02-07T13:20:18.215Z,12.40
2018-02-07T13:22:53.248Z,12.10
2018-02-07T13:25:28.131Z,12.00
2018-02-07T13:28:03.014Z,11.90
2018-02-07T13:30:38.676Z,11.80
2018-02-07T13:33:13.697Z,11.70
2018-02-07T13:35:48.575Z,11.40
2018-02-07T13:38:23.878Z,11.00
2018-02-07T13:40:59.982Z,10.50
2018-02-07T13:43:35.122Z,10.20
2018-02-07T13:46:10.547Z,9.90
2018-02-07T13:48:45.678Z,9.60
2018-02-07T13:51:21.177Z,9.30
2018-02-07T13:53:56.630Z,9.10
2018-02-07T13:56:31.793Z,8.90
2018-02-07T13:59:07.147Z,8.60
2018-02-07T14:01:42.303Z,8.40
2018-02-07T14:04:17.651Z,8.00
2018-02-07T14:06:52.660Z,7.70
2018-02-07T14:09:28.173Z,7.60
2018-02-07T14:12:03.278Z,7.30
2018-02-07T14:14:39.416Z,7.10
2018-02-07T14:17:16.461Z,6.80
2018-02-07T14:19:51.448Z,6.70
2018-02-07T14:22:26.812Z,6.60
2018-02-07T14:25:02.876Z,6.80
2018-02-07T14:27:37.907Z,6.70
2018-02-07T14:30:13.213Z,5.20
2018-02-07T14:32:49.347Z,6.60
2018-02-07T14:35:24.382Z,6.40
2018-02-07T14:37:59.869Z,6.40
2018-02-07T14:40:35.497Z,6.40
2018-02-07T14:43:11.766Z,6.40
2018-02-07T14:45:46.708Z,6.40
2018-02-07T14:48:22.672Z,6.40
2018-02-07T14:50:57.640Z,6.40
2018-02-07T14:53:32.519Z,6.30
2018-02-07T14:56:08.135Z,6.30
2018-02-07T14:58:44.086Z,6.30
2018-02-07T15:01:18.919Z,6.30
2018-02-07T15:03:53.955Z,6.20
2018-02-07T15:06:29.529Z,6.20
2018-02-07T15:09:04.843Z,6.20
2018-02-07T15:11:40.527Z,6.10
2018-02-07T15:14:16.172Z,6.10
2018-02-07T15:16:53.647Z,6.00
2018-02-07T15:19:29.508Z,5.90
2018-02-07T15:22:04.754Z,5.90
2018-02-07T15:24:41.004Z,5.80
2018-02-07T15:27:17.094Z,5.80
2018-02-07T15:29:53.295Z,5.80
2018-02-07T15:32:28.491Z,5.80
2018-02-07T15:35:03.847Z,5.60
2018-02-07T15:37:39.465Z,5.60
2018-02-07T15:40:14.880Z,5.70
2018-02-07T15:42:50.028Z,5.60
2018-02-07T15:45:25.091Z,5.50
2018-02-07T15:48:01.339Z,5.60
2018-02-07T15:50:36.312Z,5.50
2018-02-07T15:53:11.655Z,5.50
2018-02-07T15:55:47.709Z,5.30
2018-02-07T15:58:23.551Z,5.40
2018-02-07T16:00:58.675Z,5.40
2018-02-07T16:03:34.070Z,5.10
2018-02-07T16:06:08.970Z,5.10
2018-02-07T16:08:44.123Z,5.10
2018-02-07T16:11:19.789Z,5.10
2018-02-07T16:13:55.209Z,4.90
2018-02-07T16:16:30.645Z,5.00
2018-02-07T16:19:05.532Z,4.90
2018-02-07T16:21:40.945Z,4.80
2018-02-07T16:24:15.963Z,4.90
2018-02-07T16:26:51.289Z,4.90
2018-02-07T16:29:26.450Z,4.80
2018-02-07T16:32:01.919Z,4.10
2018-02-07T16:34:38.010Z,4.90
2018-02-07T16:37:13.187Z,4.90
2018-02-07T16:39:48.514Z,4.90
2018-02-07T16:42:23.514Z,4.80
2018-02-07T16:45:00.311Z,4.90
2018-02-07T16:47:35.713Z,4.90
2018-02-07T16:50:11.018Z,4.80
2018-02-07T16:52:46.395Z,4.80
2018-02-07T16:55:21.926Z,4.80
2018-02-07T16:57:57.198Z,4.80
2018-02-07T17:00:33.247Z,4.70
2018-02-07T17:03:08.700Z,4.00
2018-02-07T17:05:44.067Z,4.60
2018-02-07T17:08:19.765Z,4.50
2018-02-07T17:10:54.773Z,4.70
2018-02-07T17:13:30.664Z,4.60
2018-02-07T17:16:05.839Z,4.50
2018-02-07T17:18:41.225Z,4.60
2018-02-07T17:21:16.649Z,4.50
2018-02-07T17:23:52.946Z,4.50
2018-02-07T17:26:28.600Z,4.50
2018-02-07T17:29:03.594Z,4.50
2018-02-07T17:31:38.910Z,4.50
2018-02-07T17:34:15.184Z,4.50
2018-02-07T17:36:51.226Z,4.50
2018-02-07T17:39:26.652Z,4.50
2018-02-07T17:42:02.026Z,4.50
2018-02-07T17:44:37.472Z,4.40
2018-02-07T17:47:13.687Z,4.30
2018-02-07T17:49:48.766Z,4.40
2018-02-07T17:52:24.262Z,4.30
2018-02-07T17:54:59.292Z,4.20
2018-02-07T17:57:34.333Z,2.90
2018-02-07T18:00:11.729Z,4.20
2018-02-07T18:02:46.743Z,4.20
2018-02-07T18:05:22.162Z,4.10
2018-02-07T18:07:57.889Z,4.10
2018-02-07T18:10:34.298Z,4.10
2018-02-07T18:13:09.508Z,4.10
2018-02-07T18:15:44.971Z,4.10
2018-02-07T18:18:21.671Z,4.20
2018-02-07T18:20:57.357Z,4.20
2018-02-07T18:23:32.504Z,4.10
2018-02-07T18:26:07.794Z,4.10
2018-02-07T18:28:42.837Z,4.20
2018-02-07T18:31:18.607Z,3.90
2018-02-07T18:33:53.966Z,4.00
2018-02-07T18:36:30.365Z,4.10
2018-02-07T18:39:06.320Z,3.90
2018-02-07T18:41:41.322Z,3.90
2018-02-07T18:44:16.134Z,3.90
2018-02-07T18:46:52.139Z,3.80
2018-02-07T18:49:26.978Z,3.80
2018-02-07T18:52:01.991Z,3.90
2018-02-07T18:54:36.976Z,3.70
2018-02-07T18:57:12.936Z,3.70
2018-02-07T18:59:47.904Z,3.80
2018-02-07T19:02:22.885Z,3.70
2018-02-07T19:04:58.515Z,3.80
2018-02-07T19:07:33.594Z,3.80
2018-02-07T19:10:08.451Z,3.70
2018-02-07T19:12:43.602Z,3.70
2018-02-07T19:15:18.840Z,3.80
2018-02-07T19:17:55.090Z,3.70
2018-02-07T19:20:30.048Z,3.70
2018-02-07T19:23:04.924Z,3.80
2018-02-07T19:25:39.746Z,3.80
2018-02-07T19:28:14.606Z,3.70
2018-02-07T19:30:49.435Z,3.70
2018-02-07T19:33:24.415Z,3.70
2018-02-07T19:36:00.038Z,3.80
2018-02-07T19:38:35.788Z,3.70
2018-02-07T19:41:10.607Z,3.80
2018-02-07T19:43:45.728Z,3.70
2018-02-07T19:46:20.682Z,3.60
2018-02-07T19:48:55.699Z,3.70
2018-02-07T19:51:30.554Z,3.50
2018-02-07T19:54:05.531Z,3.50
2018-02-07T19:56:40.410Z,3.40
2018-02-07T19:59:15.258Z,3.40
2018-02-07T20:01:50.877Z,3.40
2018-02-07T20:04:25.885Z,3.40
2018-02-07T20:07:01.712Z,3.30
2018-02-07T20:09:36.596Z,3.50
2018-02-07T20:12:12.335Z,3.40
2018-02-07T20:14:47.318Z,3.40
2018-02-07T20:17:24.282Z,3.30
2018-02-07T20:19:59.201Z,3.30
2018-02-07T20:22:34.198Z,3.30
2018-02-07T20:25:09.180Z,3.40
2018-02-07T20:27:44.067Z,3.40
2018-02-07T20:30:19.512Z,3.40
2018-02-07T20:32:54.420Z,3.40
2018-02-07T20:35:29.442Z,3.30
2018-02-07T20:38:04.271Z,3.40
2018-02-07T20:40:39.632Z,3.40
2018-02-07T20:43:14.627Z,3.10
2018-02-07T20:45:49.513Z,3.20
2018-02-07T20:48:24.477Z,3.10
2018-02-07T20:50:59.372Z,3.20
2018-02-07T20:53:34.351Z,3.20
2018-02-07T20:56:09.215Z,3.30
2018-02-07T20:58:44.072Z,3.40
2018-02-07T21:01:19.138Z,3.40
2018-02-07T21:03:54.415Z,3.40
2018-02-07T21:06:29.331Z,3.40
2018-02-07T21:09:04.279Z,3.40
2018-02-07T21:11:39.126Z,3.40
2018-02-07T21:14:14.221Z,3.40
2018-02-07T21:16:49.126Z,3.30
2018-02-07T21:19:23.988Z,3.40
2018-02-07T21:22:00.131Z,3.40
2018-02-07T21:24:35.931Z,3.40
2018-02-07T21:27:11.948Z,3.40
2018-02-07T21:29:46.925Z,3.40
2018-02-07T21:32:24.580Z,3.40
2018-02-07T21:34:59.453Z,3.30
2018-02-07T21:37:34.518Z,3.30
2018-02-07T21:40:09.595Z,3.30
2018-02-07T21:42:44.803Z,3.30
2018-02-07T21:45:19.968Z,3.40
2018-02-07T21:47:56.243Z,3.30
2018-02-07T21:50:32.001Z,3.30
2018-02-07T21:53:08.008Z,3.40
2018-02-07T21:55:43.304Z,3.40
2018-02-07T21:58:18.599Z,3.50
2018-02-07T22:00:53.442Z,3.40
2018-02-07T22:03:28.487Z,3.50
2018-02-07T22:06:03.456Z,3.60
2018-02-07T22:08:38.545Z,3.50
2018-02-07T22:11:13.672Z,3.50
2018-02-07T22:13:48.880Z,3.50
2018-02-07T22:16:28.850Z,3.50
2018-02-07T22:19:03.888Z,3.60
2018-02-07T22:21:38.860Z,3.50
2018-02-07T22:24:13.823Z,3.50
2018-02-07T22:26:49.566Z,3.50
2018-02-07T22:29:24.546Z,3.50
2018-02-07T22:31:59.375Z,3.40
2018-02-07T22:34:34.414Z,3.50
2018-02-07T22:37:09.443Z,3.50
2018-02-07T22:39:44.486Z,3.50
2018-02-07T22:42:19.321Z,3.40
2018-02-07T22:44:54.315Z,3.40
2018-02-07T22:47:29.186Z,3.40
2018-02-07T22:50:04.135Z,3.30
2018-02-07T22:52:38.959Z,3.40
2018-02-07T22:55:13.977Z,3.40
2018-02-07T22:57:48.932Z,3.40
2018-02-07T23:00:24.313Z,3.20
2018-02-07T23:02:59.368Z,3.30
2018-02-07T23:05:34.282Z,3.20
2018-02-07T23:08:09.206Z,3.30
2018-02-07T23:10:44.137Z,3.40
2018-02-07T23:13:19.912Z,3.30
2018-02-07T23:15:54.783Z,3.30
2018-02-07T23:18:29.644Z,3.30
2018-02-07T23:21:05.172Z,3.40
2018-02-07T23:23:40.304Z,3.40
2018-02-07T23:26:15.267Z,3.30
2018-02-07T23:28:50.163Z,3.40
2018-02-07T23:31:25.087Z,3.30
2018-02-07T23:33:59.918Z,3.40
2018-02-07T23:36:34.892Z,3.30
2018-02-07T23:39:09.935Z,3.30
2018-02-07T23:41:44.830Z,3.20
2018-02-07T23:44:20.450Z,3.20
2018-02-07T23:46:55.404Z,3.20
2018-02-07T23:49:30.239Z,3.20
2018-02-07T23:52:05.217Z,3.20
2018-02-07T23:54:41.770Z,3.10
2018-02-07T23:57:17.420Z,3.30
2018-02-07T23:59:52.262Z,3.10
